sensor_id;sensor_type;location;lat;lon;timestamp;pressure;altitude;pressure_sealevel;temperature;humidity
50322;BME280;36227;53.366;-1.426;2023-05-11T00:31:10;75678.24;;;-214.91;100.00
50322;BME280;36227;53.366;-1.426;2023-05-11T00:33:35;75660.94;;;-214.91;100.00
50322;BME280;36227;53.366;-1.426;2023-05-11T00:36:01;75693.02;;;-214.67;100.00
50322;BME280;36227;53.366;-1.426;2023-05-11T00:38:25;75719.30;;;-214.67;100.00
50322;BME280;36227;53.366;-1.426;2023-05-11T00:40:51;75766.93;;;-214.67;100.00
50322;BME280;36227;53.366;-1.426;2023-05-11T00:43:16;75783.98;;;-214.91;100.00
50322;BME280;36227;53.366;-1.426;2023-05-11T00:45:41;75820.49;;;-214.20;100.00
50322;BME280;36227;53.366;-1.426;2023-05-11T00:48:06;75843.61;;;-214.20;100.00
50322;BME280;36227;53.366;-1.426;2023-05-11T00:50:32;75800.53;;;-214.43;100.00
50322;BME280;36227;53.366;-1.426;2023-05-11T00:52:57;75789.42;;;-214.20;100.00
50322;BME280;36227;53.366;-1.426;2023-05-11T00:55:22;75733.20;;;-214.43;100.00
50322;BME280;36227;53.366;-1.426;2023-05-11T00:57:47;75751.14;;;-214.43;100.00
50322;BME280;36227;53.366;-1.426;2023-05-11T01:00:13;75793.71;;;-214.20;100.00
50322;BME280;36227;53.366;-1.426;2023-05-11T01:02:38;75756.70;;;-214.20;100.00
50322;BME280;36227;53.366;-1.426;2023-05-11T01:05:04;75756.06;;;-215.15;100.00
50322;BME280;36227;53.366;-1.426;2023-05-11T01:07:34;75772.87;;;-214.91;100.00
50322;BME280;36227;53.366;-1.426;2023-05-11T01:10:05;75759.98;;;-214.67;100.00
50322;BME280;36227;53.366;-1.426;2023-05-11T01:12:24;75713.74;;;-214.91;100.00
50322;BME280;36227;53.366;-1.426;2023-05-11T01:14:50;75710.08;;;-214.67;100.00
50322;BME280;36227;53.366;-1.426;2023-05-11T01:17:13;75612.43;;;-214.91;100.00
50322;BME280;36227;53.366;-1.426;2023-05-11T01:19:41;75614.32;;;-215.15;100.00
50322;BME280;36227;53.366;-1.426;2023-05-11T01:22:05;75607.12;;;-215.15;100.00
50322;BME280;36227;53.366;-1.426;2023-05-11T01:24:34;75617.98;;;-215.39;100.00
50322;BME280;36227;53.366;-1.426;2023-05-11T01:29:35;75616.59;;;-215.39;100.00
50322;BME280;36227;53.366;-1.426;2023-05-11T01:31:43;75596.89;;;-215.39;100.00
50322;BME280;36227;53.366;-1.426;2023-05-11T01:34:11;75619.88;;;-215.15;100.00
50322;BME280;36227;53.366;-1.426;2023-05-11T01:36:35;75559.49;;;-215.39;100.00
50322;BME280;36227;53.366;-1.426;2023-05-11T01:39:00;75524.88;;;-215.87;100.00
50322;BME280;36227;53.366;-1.426;2023-05-11T01:41:23;75541.68;;;-215.39;100.00
50322;BME280;36227;53.366;-1.426;2023-05-11T01:43:51;75623.42;;;-215.15;100.00
50322;BME280;36227;53.366;-1.426;2023-05-11T01:46:14;75670.66;;;-214.91;100.00
50322;BME280;36227;53.366;-1.426;2023-05-11T01:48:43;75718.42;;;-215.15;100.00
50322;BME280;36227;53.366;-1.426;2023-05-11T01:51:04;75733.32;;;-215.15;100.00
50322;BME280;36227;53.366;-1.426;2023-05-11T01:53:34;75716.52;;;-215.15;100.00
50322;BME280;36227;53.366;-1.426;2023-05-11T01:55:54;75632.26;;;-215.39;100.00
50322;BME280;36227;53.366;-1.426;2023-05-11T01:58:21;75580.97;;;-215.15;100.00
50322;BME280;36227;53.366;-1.426;2023-05-11T02:00:45;75519.70;;;-215.63;100.00
50322;BME280;36227;53.366;-1.426;2023-05-11T02:03:11;75515.66;;;-215.87;100.00
50322;BME280;36227;53.366;-1.426;2023-05-11T02:05:35;75455.28;;;-215.87;100.00
50322;BME280;36227;53.366;-1.426;2023-05-11T02:08:01;75466.01;;;-215.87;100.00
50322;BME280;36227;53.366;-1.426;2023-05-11T02:10:26;75438.48;;;-216.11;100.00
50322;BME280;36227;53.366;-1.426;2023-05-11T02:12:52;75431.40;;;-216.35;100.00
50322;BME280;36227;53.366;-1.426;2023-05-11T02:15:16;75530.69;;;-215.87;100.00
50322;BME280;36227;53.366;-1.426;2023-05-11T02:17:42;75619.50;;;-215.39;100.00
50322;BME280;36227;53.366;-1.426;2023-05-11T02:20:08;75630.36;;;-215.15;100.00
50322;BME280;36227;53.366;-1.426;2023-05-11T02:27:32;75502.02;;;-215.87;100.00
50322;BME280;36227;53.366;-1.426;2023-05-11T02:29:47;75475.11;;;-215.87;100.00
50322;BME280;36227;53.366;-1.426;2023-05-11T02:32:14;75526.40;;;-215.39;100.00
50322;BME280;36227;53.366;-1.426;2023-05-11T02:35:04;75517.43;;;-216.35;100.00
50322;BME280;36227;53.366;-1.426;2023-05-11T02:46:51;75461.34;;;-215.87;100.00
50322;BME280;36227;53.366;-1.426;2023-05-11T02:49:12;75482.56;;;-215.63;100.00
50322;BME280;36227;53.366;-1.426;2023-05-11T02:51:36;75496.08;;;-215.39;100.00
50322;BME280;36227;53.366;-1.426;2023-05-11T02:54:00;75472.84;;;-215.87;100.00
50322;BME280;36227;53.366;-1.426;2023-05-11T02:56:24;75484.46;;;-215.87;100.00
50322;BME280;36227;53.366;-1.426;2023-05-11T02:58:49;75521.09;;;-215.39;100.00
50322;BME280;36227;53.366;-1.426;2023-05-11T03:01:15;75489.26;;;-216.35;100.00
50322;BME280;36227;53.366;-1.426;2023-05-11T03:03:40;75490.65;;;-216.11;100.00
50322;BME280;36227;53.366;-1.426;2023-05-11T03:06:05;75477.00;;;-216.11;100.00
50322;BME280;36227;53.366;-1.426;2023-05-11T03:08:30;75485.59;;;-215.87;100.00
50322;BME280;36227;53.366;-1.426;2023-05-11T03:10:58;75542.31;;;-215.39;100.00
50322;BME280;36227;53.366;-1.426;2023-05-11T03:13:22;75485.47;;;-215.87;100.00
50322;BME280;36227;53.366;-1.426;2023-05-11T03:15:47;75518.44;;;-215.63;100.00
50322;BME280;36227;53.366;-1.426;2023-05-11T03:18:12;75578.57;;;-215.39;100.00
50322;BME280;36227;53.366;-1.426;2023-05-11T03:20:40;75594.99;;;-215.39;100.00
50322;BME280;36227;53.366;-1.426;2023-05-11T03:23:05;75682.54;;;-215.39;100.00
50322;BME280;36227;53.366;-1.426;2023-05-11T03:25:28;75699.72;;;-215.15;100.00
50322;BME280;36227;53.366;-1.426;2023-05-11T03:27:53;75705.28;;;-214.91;100.00
50322;BME280;36227;53.366;-1.426;2023-05-11T03:30:19;75672.69;;;-215.15;100.00
50322;BME280;36227;53.366;-1.426;2023-05-11T03:32:44;75695.05;;;-214.91;100.00
50322;BME280;36227;53.366;-1.426;2023-05-11T03:35:09;75688.60;;;-215.15;100.00
50322;BME280;36227;53.366;-1.426;2023-05-11T03:37:45;75660.30;;;-214.91;100.00
50322;BME280;36227;53.366;-1.426;2023-05-11T03:45:03;75550.15;;;-216.35;100.00
50322;BME280;36227;53.366;-1.426;2023-05-11T04:16:22;75674.45;;;-215.15;100.00
50322;BME280;36227;53.366;-1.426;2023-05-11T04:18:47;75698.58;;;-215.15;100.00
50322;BME280;36227;53.366;-1.426;2023-05-11T04:21:12;75685.07;;;-214.91;100.00
50322;BME280;36227;53.366;-1.426;2023-05-11T04:23:37;75666.24;;;-214.91;100.00
50322;BME280;36227;53.366;-1.426;2023-05-11T04:26:09;75663.08;;;-215.87;100.00
50322;BME280;36227;53.366;-1.426;2023-05-11T04:28:29;75626.95;;;-215.87;100.00
50322;BME280;36227;53.366;-1.426;2023-05-11T04:30:55;75606.36;;;-215.39;100.00
50322;BME280;36227;53.366;-1.426;2023-05-11T04:33:21;75559.24;;;-215.63;100.00
50322;BME280;36227;53.366;-1.426;2023-05-11T04:35:46;75566.70;;;-215.87;100.00
50322;BME280;36227;53.366;-1.426;2023-05-11T04:45:27;75512.38;;;-216.35;100.00
50322;BME280;36227;53.366;-1.426;2023-05-11T04:47:52;75588.68;;;-216.35;100.00
50322;BME280;36227;53.366;-1.426;2023-05-11T04:50:18;75709.83;;;-215.15;100.00
50322;BME280;36227;53.366;-1.426;2023-05-11T04:55:10;75711.85;;;-215.15;100.00
50322;BME280;36227;53.366;-1.426;2023-05-11T04:57:37;75711.22;;;-214.91;100.00
50322;BME280;36227;53.366;-1.426;2023-05-11T04:59:59;75755.81;;;-214.91;100.00
50322;BME280;36227;53.366;-1.426;2023-05-11T05:02:25;75793.08;;;-214.43;100.00
50322;BME280;36227;53.366;-1.426;2023-05-11T05:04:50;75797.12;;;-214.67;100.00
50322;BME280;36227;53.366;-1.426;2023-05-11T05:07:16;75831.11;;;-214.43;100.00
50322;BME280;36227;53.366;-1.426;2023-05-11T05:09:41;75776.02;;;-215.15;100.00
50322;BME280;36227;53.366;-1.426;2023-05-11T05:12:06;75726.63;;;-215.39;100.00
50322;BME280;36227;53.366;-1.426;2023-05-11T05:14:32;75735.09;;;-214.91;100.00
50322;BME280;36227;53.366;-1.426;2023-05-11T05:16:57;75727.26;;;-215.15;100.00
50322;BME280;36227;53.366;-1.426;2023-05-11T05:19:22;75724.23;;;-214.91;100.00
50322;BME280;36227;53.366;-1.426;2023-05-11T05:21:48;75739.26;;;-214.67;100.00
50322;BME280;36227;53.366;-1.426;2023-05-11T05:24:13;75663.34;;;-215.15;100.00
50322;BME280;36227;53.366;-1.426;2023-05-11T05:26:39;75717.03;;;-214.91;100.00
50322;BME280;36227;53.366;-1.426;2023-05-11T05:29:05;75738.50;;;-214.67;100.00
50322;BME280;36227;53.366;-1.426;2023-05-11T05:31:31;75715.76;;;-215.39;100.00
50322;BME280;36227;53.366;-1.426;2023-05-11T05:33:56;75663.72;;;-215.63;100.00
50322;BME280;36227;53.366;-1.426;2023-05-11T05:36:21;75677.23;;;-215.39;100.00
50322;BME280;36227;53.366;-1.426;2023-05-11T05:38:46;75673.70;;;-215.39;100.00
50322;BME280;36227;53.366;-1.426;2023-05-11T05:41:12;75676.48;;;-215.15;100.00
50322;BME280;36227;53.366;-1.426;2023-05-11T05:43:37;75650.32;;;-214.91;100.00
50322;BME280;36227;53.366;-1.426;2023-05-11T05:46:03;75588.93;;;-215.39;100.00
50322;BME280;36227;53.366;-1.426;2023-05-11T05:48:28;75625.06;;;-215.39;100.00
50322;BME280;36227;53.366;-1.426;2023-05-11T05:50:53;75569.22;;;-215.39;100.00
50322;BME280;36227;53.366;-1.426;2023-05-11T05:53:19;75576.55;;;-215.87;100.00
50322;BME280;36227;53.366;-1.426;2023-05-11T05:55:44;75551.79;;;-216.35;100.00
50322;BME280;36227;53.366;-1.426;2023-05-11T05:58:09;75565.81;;;-216.11;100.00
50322;BME280;36227;53.366;-1.426;2023-05-11T06:00:35;75618.74;;;-215.39;100.00
50322;BME280;36227;53.366;-1.426;2023-05-11T06:03:00;75602.57;;;-215.39;100.00
50322;BME280;36227;53.366;-1.426;2023-05-11T06:05:26;75633.27;;;-215.39;100.00
50322;BME280;36227;53.366;-1.426;2023-05-11T06:07:52;75682.54;;;-215.15;100.00
50322;BME280;36227;53.366;-1.426;2023-05-11T06:10:17;75677.74;;;-215.15;100.00
50322;BME280;36227;53.366;-1.426;2023-05-11T06:12:43;75655.63;;;-215.15;100.00
50322;BME280;36227;53.366;-1.426;2023-05-11T06:15:12;75708.06;;;-215.63;100.00
50322;BME280;36227;53.366;-1.426;2023-05-11T06:17:34;75706.79;;;-215.87;100.00
50322;BME280;36227;53.366;-1.426;2023-05-11T06:20:00;75674.96;;;-215.63;100.00
50322;BME280;36227;53.366;-1.426;2023-05-11T06:22:25;75637.31;;;-215.87;100.00
50322;BME280;36227;53.366;-1.426;2023-05-11T06:24:51;75626.57;;;-215.87;100.00
50322;BME280;36227;53.366;-1.426;2023-05-11T06:27:17;75575.03;;;-216.11;100.00
50322;BME280;36227;53.366;-1.426;2023-05-11T06:29:42;75557.22;;;-215.87;100.00
50322;BME280;36227;53.366;-1.426;2023-05-11T06:32:07;75571.24;;;-215.87;100.00
50322;BME280;36227;53.366;-1.426;2023-05-11T06:34:33;75557.09;;;-215.39;100.00
50322;BME280;36227;53.366;-1.426;2023-05-11T06:36:58;75560.38;;;-216.11;100.00
50322;BME280;36227;53.366;-1.426;2023-05-11T06:39:23;75564.17;;;-216.35;100.00
50322;BME280;36227;53.366;-1.426;2023-05-11T06:41:51;75603.96;;;-215.87;100.00
50322;BME280;36227;53.366;-1.426;2023-05-11T06:44:14;75665.36;;;-215.39;100.00
50322;BME280;36227;53.366;-1.426;2023-05-11T06:46:39;75626.70;;;-215.39;100.00
50322;BME280;36227;53.366;-1.426;2023-05-11T06:49:06;75600.68;;;-215.87;100.00
50322;BME280;36227;53.366;-1.426;2023-05-11T06:51:30;75637.69;;;-215.39;100.00
50322;BME280;36227;53.366;-1.426;2023-05-11T06:53:55;75701.87;;;-215.15;100.00
50322;BME280;36227;53.366;-1.426;2023-05-11T06:56:21;75649.69;;;-215.39;100.00
50322;BME280;36227;53.366;-1.426;2023-05-11T06:58:46;75597.65;;;-215.87;100.00
50322;BME280;36227;53.366;-1.426;2023-05-11T07:01:11;75609.02;;;-216.35;100.00
50322;BME280;36227;53.366;-1.426;2023-05-11T07:03:37;75557.09;;;-215.87;100.00
50322;BME280;36227;53.366;-1.426;2023-05-11T07:06:03;75536.88;;;-215.87;100.00
50322;BME280;36227;53.366;-1.426;2023-05-11T07:08:28;75626.20;;;-215.39;100.00
50322;BME280;36227;53.366;-1.426;2023-05-11T07:10:54;75608.26;;;-215.87;100.00
50322;BME280;36227;53.366;-1.426;2023-05-11T07:13:19;75574.78;;;-215.63;100.00
50322;BME280;36227;53.366;-1.426;2023-05-11T07:15:45;75557.85;;;-215.87;100.00
50322;BME280;36227;53.366;-1.426;2023-05-11T07:18:10;75552.93;;;-215.63;100.00
50322;BME280;36227;53.366;-1.426;2023-05-11T07:20:36;75553.56;;;-216.11;100.00
50322;BME280;36227;53.366;-1.426;2023-05-11T07:23:00;75504.29;;;-216.59;100.00
50322;BME280;36227;53.366;-1.426;2023-05-11T07:25:26;75462.35;;;-216.35;100.00
50322;BME280;36227;53.366;-1.426;2023-05-11T07:27:51;75637.69;;;-216.35;100.00
50322;BME280;36227;53.366;-1.426;2023-05-11T07:30:17;75558.36;;;-216.35;100.00
50322;BME280;36227;53.366;-1.426;2023-05-11T07:32:42;75592.21;;;-216.11;100.00
50322;BME280;36227;53.366;-1.426;2023-05-11T07:35:08;75488.50;;;-216.11;100.00
50322;BME280;36227;53.366;-1.426;2023-05-11T07:37:33;75488.63;;;-216.11;100.00
50322;BME280;36227;53.366;-1.426;2023-05-11T07:39:58;75453.00;;;-216.35;100.00
50322;BME280;36227;53.366;-1.426;2023-05-11T07:42:24;75455.66;;;-216.11;100.00
50322;BME280;36227;53.366;-1.426;2023-05-11T07:44:49;75415.11;;;-217.30;100.00
50322;BME280;36227;53.366;-1.426;2023-05-11T07:47:14;75493.93;;;-216.35;100.00
50322;BME280;36227;53.366;-1.426;2023-05-11T07:49:39;75525.01;;;-216.35;100.00
50322;BME280;36227;53.366;-1.426;2023-05-11T07:52:05;75443.91;;;-216.83;100.00
50322;BME280;36227;53.366;-1.426;2023-05-11T07:54:30;75369.63;;;-216.83;100.00
50322;BME280;36227;53.366;-1.426;2023-05-11T07:56:55;75398.81;;;-216.83;100.00
50322;BME280;36227;53.366;-1.426;2023-05-11T07:59:20;75429.25;;;-216.59;100.00
50322;BME280;36227;53.366;-1.426;2023-05-11T08:01:45;75302.18;;;-216.83;100.00
50322;BME280;36227;53.366;-1.426;2023-05-11T08:04:10;75246.09;;;-216.83;100.00
50322;BME280;36227;53.366;-1.426;2023-05-11T08:06:36;75230.30;;;-217.78;100.00
50322;BME280;36227;53.366;-1.426;2023-05-11T08:09:02;75265.67;;;-217.30;100.00
50322;BME280;36227;53.366;-1.426;2023-05-11T08:11:27;75395.53;;;-216.83;100.00
50322;BME280;36227;53.366;-1.426;2023-05-11T08:13:53;75471.83;;;-216.83;100.00
50322;BME280;36227;53.366;-1.426;2023-05-11T08:16:18;75635.42;;;-216.35;100.00
50322;BME280;36227;53.366;-1.426;2023-05-11T08:18:44;75472.46;;;-216.59;100.00
50322;BME280;36227;53.366;-1.426;2023-05-11T08:21:09;75495.95;;;-216.35;100.00
50322;BME280;36227;53.366;-1.426;2023-05-11T08:23:34;75283.10;;;-216.83;100.00
50322;BME280;36227;53.366;-1.426;2023-05-11T08:26:00;75232.83;;;-217.07;100.00
50322;BME280;36227;53.366;-1.426;2023-05-11T08:28:26;75468.54;;;-217.78;100.00
50322;BME280;36227;53.366;-1.426;2023-05-11T08:30:54;75487.74;;;-217.30;100.00
50322;BME280;36227;53.366;-1.426;2023-05-11T08:33:16;75518.19;;;-216.83;100.00
50322;BME280;36227;53.366;-1.426;2023-05-11T08:35:43;75525.77;;;-216.59;100.00
50322;BME280;36227;53.366;-1.426;2023-05-11T08:38:07;75402.47;;;-216.59;100.00
50322;BME280;36227;53.366;-1.426;2023-05-11T08:40:32;75383.78;;;-216.83;100.00
50322;BME280;36227;53.366;-1.426;2023-05-11T08:42:59;75248.49;;;-217.07;100.00
50322;BME280;36227;53.366;-1.426;2023-05-11T08:45:23;75475.87;;;-216.59;100.00
50322;BME280;36227;53.366;-1.426;2023-05-11T08:47:48;75257.46;;;-216.83;100.00
50322;BME280;36227;53.366;-1.426;2023-05-11T08:50:14;75443.78;;;-217.30;100.00
50322;BME280;36227;53.366;-1.426;2023-05-11T08:52:39;75530.31;;;-217.30;100.00
50322;BME280;36227;53.366;-1.426;2023-05-11T08:55:05;75524.50;;;-216.83;100.00
50322;BME280;36227;53.366;-1.426;2023-05-11T08:57:30;75270.85;;;-217.07;100.00
50322;BME280;36227;53.366;-1.426;2023-05-11T08:59:55;75141.12;;;-217.30;100.00
50322;BME280;36227;53.366;-1.426;2023-05-11T09:02:22;75279.19;;;-217.30;100.00
50322;BME280;36227;53.366;-1.426;2023-05-11T09:04:46;75228.66;;;-217.30;100.00
50322;BME280;36227;53.366;-1.426;2023-05-11T09:07:14;75493.93;;;-216.83;100.00
50322;BME280;36227;53.366;-1.426;2023-05-11T09:09:37;75241.67;;;-217.30;100.00
50322;BME280;36227;53.366;-1.426;2023-05-11T09:12:03;75171.82;;;-217.78;100.00
50322;BME280;36227;53.366;-1.426;2023-05-11T09:14:28;75175.86;;;-218.02;100.00
50322;BME280;36227;53.366;-1.426;2023-05-11T09:16:53;75518.94;;;-216.83;100.00
50322;BME280;36227;53.366;-1.426;2023-05-11T09:19:18;75277.42;;;-217.07;100.00
50322;BME280;36227;53.366;-1.426;2023-05-11T09:21:44;75177.50;;;-217.30;100.00
50322;BME280;36227;53.366;-1.426;2023-05-11T09:24:10;75149.71;;;-217.30;100.00
50322;BME280;36227;53.366;-1.426;2023-05-11T09:26:35;75076.07;;;-217.54;100.00
50322;BME280;36227;53.366;-1.426;2023-05-11T09:28:59;75093.38;;;-217.54;100.00
50322;BME280;36227;53.366;-1.426;2023-05-11T09:31:35;75348.16;;;-217.30;100.00
50322;BME280;36227;53.366;-1.426;2023-05-11T09:33:59;75227.77;;;-217.54;100.00
50322;BME280;36227;53.366;-1.426;2023-05-11T09:36:22;75237.75;;;-218.02;100.00
50322;BME280;36227;53.366;-1.426;2023-05-11T09:38:41;75260.74;;;-217.78;100.00
50322;BME280;36227;53.366;-1.426;2023-05-11T09:41:07;75283.23;;;-217.54;100.00
50322;BME280;36227;53.366;-1.426;2023-05-11T09:43:31;75609.65;;;-216.59;100.00
50322;BME280;36227;53.366;-1.426;2023-05-11T09:45:58;75694.92;;;-216.11;100.00
50322;BME280;36227;53.366;-1.426;2023-05-11T09:48:27;75576.04;;;-216.11;100.00
50322;BME280;36227;53.366;-1.426;2023-05-11T09:50:47;75590.57;;;-216.35;100.00
50322;BME280;36227;53.366;-1.426;2023-05-11T09:53:11;75517.18;;;-216.11;100.00
50322;BME280;36227;53.366;-1.426;2023-05-11T09:55:36;75489.76;;;-216.11;100.00
50322;BME280;36227;53.366;-1.426;2023-05-11T09:58:02;75496.08;;;-216.83;100.00
50322;BME280;36227;53.366;-1.426;2023-05-11T10:00:27;75500.50;;;-216.83;100.00
50322;BME280;36227;53.366;-1.426;2023-05-11T10:03:01;75565.56;;;-216.11;100.00
50322;BME280;36227;53.366;-1.426;2023-05-11T10:05:17;75615.21;;;-215.87;100.00
50322;BME280;36227;53.366;-1.426;2023-05-11T10:07:42;75692.90;;;-215.39;100.00
50322;BME280;36227;53.366;-1.426;2023-05-11T10:10:22;75662.33;;;-215.63;100.00
50322;BME280;36227;53.366;-1.426;2023-05-11T10:12:35;75753.03;;;-215.15;100.00
50322;BME280;36227;53.366;-1.426;2023-05-11T10:19:49;75690.25;;;-215.39;100.00
50322;BME280;36227;53.366;-1.426;2023-05-11T10:22:14;75625.94;;;-216.35;100.00
50322;BME280;36227;53.366;-1.426;2023-05-11T10:24:39;75589.56;;;-216.35;100.00
50322;BME280;36227;53.366;-1.426;2023-05-11T10:27:04;75628.72;;;-215.87;100.00
50322;BME280;36227;53.366;-1.426;2023-05-11T10:29:29;75744.95;;;-215.63;100.00
50322;BME280;36227;53.366;-1.426;2023-05-11T10:31:55;75758.46;;;-215.15;100.00
50322;BME280;36227;53.366;-1.426;2023-05-11T10:34:19;75841.59;;;-214.91;100.00
50322;BME280;36227;53.366;-1.426;2023-05-11T10:36:45;75837.42;;;-215.15;100.00
50322;BME280;36227;53.366;-1.426;2023-05-11T10:39:10;75813.80;;;-214.91;100.00
50322;BME280;36227;53.366;-1.426;2023-05-11T10:41:46;75787.02;;;-214.91;100.00
50322;BME280;36227;53.366;-1.426;2023-05-11T10:56:25;75769.83;;;-215.39;100.00
50322;BME280;36227;53.366;-1.426;2023-05-11T10:58:45;75790.05;;;-215.39;100.00
50322;BME280;36227;53.366;-1.426;2023-05-11T11:03:24;75829.72;;;-215.15;100.00
50322;BME280;36227;53.366;-1.426;2023-05-11T11:05:49;75860.80;;;-215.39;100.00
50322;BME280;36227;53.366;-1.426;2023-05-11T11:08:14;75886.69;;;-214.91;100.00
50322;BME280;36227;53.366;-1.426;2023-05-11T11:10:40;75891.75;;;-214.91;100.00
50322;BME280;36227;53.366;-1.426;2023-05-11T11:13:05;75862.44;;;-214.91;100.00
50322;BME280;36227;53.366;-1.426;2023-05-11T11:22:46;75755.69;;;-215.39;100.00
50322;BME280;36227;53.366;-1.426;2023-05-11T11:25:10;75763.14;;;-215.87;100.00
50322;BME280;36227;53.366;-1.426;2023-05-11T11:30:15;75724.73;;;-216.35;100.00
50322;BME280;36227;53.366;-1.426;2023-05-11T11:32:26;75738.63;;;-216.35;100.00
50322;BME280;36227;53.366;-1.426;2023-05-11T11:34:51;75690.37;;;-216.11;100.00
50322;BME280;36227;53.366;-1.426;2023-05-11T11:37:17;75726.00;;;-216.11;100.00
50322;BME280;36227;53.366;-1.426;2023-05-11T11:39:50;75743.30;;;-216.11;100.00
50322;BME280;36227;53.366;-1.426;2023-05-11T11:42:08;75580.34;;;-216.35;100.00
50322;BME280;36227;53.366;-1.426;2023-05-11T11:44:33;75634.41;;;-216.35;100.00
50322;BME280;36227;53.366;-1.426;2023-05-11T11:47:09;75527.41;;;-216.35;100.00
50322;BME280;36227;53.366;-1.426;2023-05-11T11:49:26;75507.83;;;-216.83;100.00
50322;BME280;36227;53.366;-1.426;2023-05-11T11:51:49;75633.65;;;-217.30;100.00
50322;BME280;36227;53.366;-1.426;2023-05-11T11:56:40;75515.03;;;-216.59;100.00
50322;BME280;36227;53.366;-1.426;2023-05-11T11:59:04;75574.28;;;-216.35;100.00
50322;BME280;36227;53.366;-1.426;2023-05-11T12:01:37;75617.98;;;-216.35;100.00
50322;BME280;36227;53.366;-1.426;2023-05-11T12:04:14;75573.14;;;-216.59;100.00
50322;BME280;36227;53.366;-1.426;2023-05-11T12:06:20;75782.97;;;-216.11;100.00
50322;BME280;36227;53.366;-1.426;2023-05-11T12:08:45;75755.81;;;-215.87;100.00
50322;BME280;36227;53.366;-1.426;2023-05-11T12:11:16;75732.82;;;-215.87;100.00
50322;BME280;36227;53.366;-1.426;2023-05-11T12:13:36;75758.21;;;-216.11;100.00
50322;BME280;36227;53.366;-1.426;2023-05-11T12:16:07;75718.92;;;-216.35;100.00
50322;BME280;36227;53.366;-1.426;2023-05-11T12:18:27;75769.58;;;-215.87;100.00
50322;BME280;36227;53.366;-1.426;2023-05-11T12:20:52;75864.84;;;-214.91;100.00
50322;BME280;36227;53.366;-1.426;2023-05-11T12:23:18;75845.13;;;-215.39;100.00
50322;BME280;36227;53.366;-1.426;2023-05-11T12:25:43;75850.18;;;-215.39;100.00
50322;BME280;36227;53.366;-1.426;2023-05-11T12:28:08;75814.94;;;-215.39;100.00
50322;BME280;36227;53.366;-1.426;2023-05-11T12:30:33;75862.94;;;-215.15;100.00
50322;BME280;36227;53.366;-1.426;2023-05-11T12:32:59;75847.78;;;-215.15;100.00
50322;BME280;36227;53.366;-1.426;2023-05-11T12:35:25;75884.93;;;-214.91;100.00
50322;BME280;36227;53.366;-1.426;2023-05-11T12:37:49;75907.03;;;-215.63;100.00
50322;BME280;36227;53.366;-1.426;2023-05-11T12:40:14;75884.67;;;-215.39;100.00
50322;BME280;36227;53.366;-1.426;2023-05-11T12:42:48;75855.36;;;-215.15;100.00
50322;BME280;36227;53.366;-1.426;2023-05-11T12:45:05;75792.57;;;-215.63;100.00
50322;BME280;36227;53.366;-1.426;2023-05-11T12:47:30;75734.46;;;-215.63;100.00
50322;BME280;36227;53.366;-1.426;2023-05-11T12:49:54;75781.33;;;-215.39;100.00
50322;BME280;36227;53.366;-1.426;2023-05-11T12:52:22;75550.02;;;-216.11;100.00
50322;BME280;36227;53.366;-1.426;2023-05-11T12:54:48;75584.63;;;-215.87;100.00
50322;BME280;36227;53.366;-1.426;2023-05-11T12:59:37;75728.14;;;-216.11;100.00
50322;BME280;36227;53.366;-1.426;2023-05-11T13:02:08;75673.19;;;-216.35;100.00
50322;BME280;36227;53.366;-1.426;2023-05-11T13:04:29;75450.10;;;-216.59;100.00
50322;BME280;36227;53.366;-1.426;2023-05-11T13:06:50;75794.97;;;-215.39;100.00
50322;BME280;36227;53.366;-1.426;2023-05-11T13:09:20;75770.21;;;-215.87;100.00
50322;BME280;36227;53.366;-1.426;2023-05-11T13:11:40;75710.33;;;-215.87;100.00
50322;BME280;36227;53.366;-1.426;2023-05-11T13:14:14;75669.91;;;-215.87;100.00
50322;BME280;36227;53.366;-1.426;2023-05-11T13:16:31;75764.15;;;-215.87;100.00
50322;BME280;36227;53.366;-1.426;2023-05-11T13:18:57;75857.01;;;-215.15;100.00
50322;BME280;36227;53.366;-1.426;2023-05-11T13:21:21;75754.55;;;-215.63;100.00
50322;BME280;36227;53.366;-1.426;2023-05-11T13:23:48;75776.91;;;-216.11;100.00
50322;BME280;36227;53.366;-1.426;2023-05-11T13:26:11;75685.19;;;-216.11;100.00
50322;BME280;36227;53.366;-1.426;2023-05-11T13:28:36;75675.59;;;-216.11;100.00
50322;BME280;36227;53.366;-1.426;2023-05-11T13:31:01;75700.48;;;-215.87;100.00
50322;BME280;36227;53.366;-1.426;2023-05-11T13:33:26;75550.27;;;-216.35;100.00
50322;BME280;36227;53.366;-1.426;2023-05-11T13:35:52;75517.93;;;-216.35;100.00
50322;BME280;36227;53.366;-1.426;2023-05-11T13:38:17;75605.73;;;-216.35;100.00
50322;BME280;36227;53.366;-1.426;2023-05-11T13:40:42;75669.27;;;-216.35;100.00
50322;BME280;36227;53.366;-1.426;2023-05-11T13:43:07;75599.16;;;-216.11;100.00
50322;BME280;36227;53.366;-1.426;2023-05-11T13:45:32;75644.39;;;-216.11;100.00
50322;BME280;36227;53.366;-1.426;2023-05-11T13:47:57;75590.82;;;-216.83;100.00
50322;BME280;36227;53.366;-1.426;2023-05-11T13:50:23;75639.21;;;-216.35;100.00
50322;BME280;36227;53.366;-1.426;2023-05-11T13:52:47;75773.50;;;-215.63;100.00
50322;BME280;36227;53.366;-1.426;2023-05-11T13:55:12;75682.92;;;-215.87;100.00
50322;BME280;36227;53.366;-1.426;2023-05-11T13:57:37;75706.54;;;-215.87;100.00
50322;BME280;36227;53.366;-1.426;2023-05-11T14:00:03;75587.16;;;-216.11;100.00
50322;BME280;36227;53.366;-1.426;2023-05-11T14:02:28;75726.25;;;-215.63;100.00
50322;BME280;36227;53.366;-1.426;2023-05-11T14:04:53;75764.28;;;-215.39;100.00
50322;BME280;36227;53.366;-1.426;2023-05-11T14:07:18;75601.94;;;-216.11;100.00
50322;BME280;36227;53.366;-1.426;2023-05-11T14:09:44;75630.36;;;-216.83;100.00
50322;BME280;36227;53.366;-1.426;2023-05-11T14:12:08;75605.10;;;-216.35;100.00
50322;BME280;36227;53.366;-1.426;2023-05-11T14:14:33;75633.65;;;-216.35;100.00